Wetterdaten: Woche 28.07.14 - 03.08.14 (KW31)
Datum Zeit Temp. A. Feuchte A. Luftdruck Regen Wind Richtung Sonnenschein ET UV Solar Taupunkt Windchill Windben
28.07.2014 00:00 15,8 C 95 % 1013,4 hPa 0,0 l/m 0,3 km/h (0 Bft) NO 0,00 h 0,000 mm 0,0 UV-I 0 W/m 15,1 C 15,8 C 0,7 km/h (0 Bft)
28.07.2014 01:00 15,4 C 95 % 1013,2 hPa 0,0 l/m 0,4 km/h (0 Bft) N-NW 0,00 h 0,000 mm 0,0 UV-I 0 W/m 14,6 C 15,4 C 1,3 km/h (1 Bft)
28.07.2014 02:00 14,6 C 97 % 1013,0 hPa 0,0 l/m 0,0 km/h (0 Bft) N 0,00 h 0,000 mm 0,0 UV-I 0 W/m 14,0 C 14,6 C 0,3 km/h (0 Bft)
28.07.2014 03:00 14,3 C 97 % 1012,8 hPa 0,0 l/m 0,2 km/h (0 Bft) O-NO 0,00 h 0,000 mm 0,0 UV-I 0 W/m 13,8 C 14,3 C 0,8 km/h (0 Bft)
28.07.2014 04:00 13,9 C 97 % 1012,6 hPa 0,0 l/m 0,1 km/h (0 Bft) O-SO 0,00 h 0,000 mm 0,0 UV-I 0 W/m 13,5 C 13,9 C 0,4 km/h (0 Bft)
28.07.2014 05:00 13,7 C 97 % 1012,7 hPa 0,0 l/m 0,1 km/h (0 Bft) O-SO 0,00 h 0,000 mm 0,0 UV-I 8 W/m 13,3 C 13,7 C 0,2 km/h (0 Bft)
28.07.2014 06:00 13,6 C 98 % 1012,7 hPa 0,0 l/m 0,1 km/h (0 Bft) O-SO 0,00 h 0,000 mm 0,0 UV-I 29 W/m 13,3 C 13,6 C 0,4 km/h (0 Bft)
28.07.2014 07:00 14,5 C 97 % 1012,5 hPa 0,0 l/m 0,3 km/h (0 Bft) O-SO 0,73 h 0,025 mm 0,5 UV-I 68 W/m 14,1 C 14,5 C 1,4 km/h (1 Bft)
28.07.2014 08:00 16,5 C 95 % 1012,4 hPa 0,0 l/m 2,1 km/h (1 Bft) W-NW 1,00 h 0,025 mm 0,9 UV-I 149 W/m 15,7 C 16,5 C 3,5 km/h (1 Bft)
28.07.2014 09:00 19,0 C 89 % 1012,0 hPa 0,0 l/m 2,3 km/h (1 Bft) NW 1,00 h 0,076 mm 2,0 UV-I 389 W/m 17,2 C 19,0 C 4,2 km/h (1 Bft)
28.07.2014 10:00 22,4 C 78 % 1011,6 hPa 0,0 l/m 2,5 km/h (1 Bft) S 1,00 h 0,229 mm 3,7 UV-I 661 W/m 18,4 C 22,4 C 4,5 km/h (1 Bft)
28.07.2014 11:00 24,3 C 68 % 1011,2 hPa 0,0 l/m 3,5 km/h (1 Bft) NO 1,00 h 0,381 mm 4,8 UV-I 681 W/m 18,1 C 24,2 C 7,0 km/h (2 Bft)
28.07.2014 12:00 25,5 C 61 % 1010,9 hPa 0,0 l/m 4,8 km/h (1 Bft) O-NO 1,00 h 0,432 mm 5,7 UV-I 760 W/m 17,4 C 25,4 C 8,6 km/h (2 Bft)
28.07.2014 13:00 25,7 C 60 % 1010,5 hPa 0,0 l/m 4,4 km/h (1 Bft) O-NO 1,00 h 0,508 mm 5,4 UV-I 689 W/m 17,2 C 25,6 C 8,1 km/h (2 Bft)
28.07.2014 14:00 25,9 C 59 % 1009,9 hPa 0,0 l/m 4,2 km/h (1 Bft) O 1,00 h 0,458 mm 4,7 UV-I 601 W/m 17,3 C 25,8 C 8,0 km/h (2 Bft)
28.07.2014 15:00 25,9 C 58 % 1009,2 hPa 0,0 l/m 4,6 km/h (1 Bft) O 1,00 h 0,406 mm 4,4 UV-I 648 W/m 17,1 C 25,8 C 8,9 km/h (2 Bft)
28.07.2014 16:00 26,4 C 56 % 1008,6 hPa 0,0 l/m 5,0 km/h (1 Bft) O-SO 1,00 h 0,432 mm 3,1 UV-I 512 W/m 16,9 C 26,2 C 9,1 km/h (2 Bft)
28.07.2014 17:00 25,6 C 60 % 1008,3 hPa 0,0 l/m 5,4 km/h (1 Bft) O 1,00 h 0,356 mm 1,6 UV-I 302 W/m 17,3 C 25,5 C 10,8 km/h (2 Bft)
28.07.2014 18:00 23,9 C 66 % 1008,3 hPa 0,0 l/m 4,0 km/h (1 Bft) O 1,00 h 0,229 mm 0,7 UV-I 106 W/m 17,2 C 23,9 C 8,1 km/h (2 Bft)
28.07.2014 19:00 22,5 C 71 % 1008,6 hPa 0,0 l/m 3,9 km/h (1 Bft) O-NO 0,48 h 0,102 mm 0,0 UV-I 45 W/m 17,1 C 22,5 C 7,5 km/h (2 Bft)
28.07.2014 20:00 20,9 C 78 % 1009,2 hPa 0,0 l/m 3,6 km/h (1 Bft) O-NO 0,00 h 0,051 mm 0,0 UV-I 14 W/m 17,0 C 20,9 C 7,2 km/h (2 Bft)
28.07.2014 21:00 20,0 C 81 % 1009,0 hPa 0,0 l/m 4,4 km/h (1 Bft) O-NO 0,00 h 0,025 mm 0,0 UV-I 0 W/m 16,7 C 19,9 C 8,2 km/h (2 Bft)
28.07.2014 22:00 19,0 C 83 % 1008,6 hPa 0,0 l/m 2,1 km/h (1 Bft) O-NO 0,00 h 0,025 mm 0,0 UV-I 0 W/m 16,1 C 19,0 C 4,7 km/h (1 Bft)
28.07.2014 23:00 18,1 C 85 % 1008,2 hPa 0,0 l/m 2,4 km/h (1 Bft) N-NO 0,00 h 0,025 mm 0,0 UV-I 0 W/m 15,5 C 18,1 C 4,7 km/h (1 Bft)
29.07.2014 00:00 17,4 C 87 % 1008,0 hPa 0,0 l/m 0,3 km/h (0 Bft) O-NO 0,00 h 0,025 mm 0,0 UV-I 0 W/m 15,1 C 17,4 C 1,3 km/h (1 Bft)
29.07.2014 01:00 16,9 C 88 % 1008,1 hPa 0,0 l/m 1,9 km/h (1 Bft) N-NO 0,00 h 0,000 mm 0,0 UV-I 0 W/m 14,9 C 16,9 C 3,6 km/h (1 Bft)
29.07.2014 02:00 16,6 C 90 % 1008,0 hPa 0,0 l/m 0,4 km/h (0 Bft) S-SO 0,00 h 0,000 mm 0,0 UV-I 0 W/m 15,0 C 16,6 C 1,3 km/h (1 Bft)
29.07.2014 03:00 16,7 C 91 % 1007,8 hPa 0,0 l/m 0,3 km/h (0 Bft) O-NO 0,00 h 0,000 mm 0,0 UV-I 0 W/m 15,2 C 16,7 C 0,9 km/h (0 Bft)
29.07.2014 04:00 16,9 C 89 % 1007,5 hPa 0,0 l/m 1,1 km/h (1 Bft) N 0,00 h 0,000 mm 0,0 UV-I 0 W/m 15,1 C 16,9 C 2,3 km/h (1 Bft)
29.07.2014 05:00 16,7 C 90 % 1007,4 hPa 0,0 l/m 2,9 km/h (1 Bft) N 0,00 h 0,000 mm 0,0 UV-I 5 W/m 15,1 C 16,7 C 4,7 km/h (1 Bft)
29.07.2014 06:00 16,7 C 91 % 1007,2 hPa 0,0 l/m 1,7 km/h (1 Bft) N-NW 0,00 h 0,000 mm 0,0 UV-I 14 W/m 15,3 C 16,7 C 3,2 km/h (1 Bft)
29.07.2014 07:00 17,7 C 89 % 1006,9 hPa 0,0 l/m 1,8 km/h (1 Bft) NO 0,92 h 0,000 mm 0,5 UV-I 87 W/m 15,9 C 17,7 C 4,4 km/h (1 Bft)
29.07.2014 08:00 19,5 C 85 % 1006,9 hPa 0,0 l/m 1,2 km/h (1 Bft) O-NO 1,00 h 0,051 mm 1,1 UV-I 177 W/m 16,8 C 19,5 C 3,0 km/h (1 Bft)
29.07.2014 09:00 20,7 C 81 % 1007,0 hPa 0,0 l/m 2,3 km/h (1 Bft) S 1,00 h 0,102 mm 2,0 UV-I 257 W/m 17,4 C 20,7 C 4,5 km/h (1 Bft)
29.07.2014 10:00 21,6 C 78 % 1007,0 hPa 0,0 l/m 6,2 km/h (2 Bft) SO 1,00 h 0,152 mm 3,1 UV-I 381 W/m 17,6 C 21,3 C 10,7 km/h (2 Bft)
29.07.2014 11:00 22,0 C 75 % 1006,9 hPa 0,0 l/m 7,2 km/h (2 Bft) SO 1,00 h 0,254 mm 2,9 UV-I 324 W/m 17,4 C 21,5 C 12,0 km/h (2 Bft)
29.07.2014 12:00 22,2 C 75 % 1006,8 hPa 0,0 l/m 5,0 km/h (1 Bft) SO 1,00 h 0,229 mm 2,8 UV-I 300 W/m 17,5 C 22,1 C 8,6 km/h (2 Bft)
29.07.2014 13:00 23,3 C 70 % 1006,6 hPa 0,0 l/m 6,7 km/h (2 Bft) O-SO 1,00 h 0,203 mm 5,1 UV-I 607 W/m 17,5 C 23,0 C 11,8 km/h (2 Bft)
29.07.2014 14:00 23,9 C 67 % 1006,2 hPa 0,0 l/m 5,0 km/h (1 Bft) SO 1,00 h 0,406 mm 3,6 UV-I 418 W/m 17,3 C 23,8 C 8,9 km/h (2 Bft)
29.07.2014 15:00 23,9 C 66 % 1005,8 hPa 0,0 l/m 8,9 km/h (2 Bft) N 1,00 h 0,279 mm 3,5 UV-I 420 W/m 17,2 C 23,0 C 13,8 km/h (3 Bft)
29.07.2014 16:00 24,1 C 67 % 1005,2 hPa 0,0 l/m 13,1 km/h (3 Bft) N-NO 1,00 h 0,305 mm 3,5 UV-I 546 W/m 17,6 C 22,6 C 19,3 km/h (3 Bft)
29.07.2014 17:00 23,6 C 69 % 1004,9 hPa 0,0 l/m 9,6 km/h (2 Bft) NO 1,00 h 0,406 mm 2,1 UV-I 419 W/m 17,7 C 22,7 C 15,8 km/h (3 Bft)
29.07.2014 18:00 23,0 C 69 % 1004,7 hPa 0,0 l/m 3,9 km/h (1 Bft) NO 1,00 h 0,305 mm 0,8 UV-I 131 W/m 17,1 C 23,0 C 7,6 km/h (2 Bft)
29.07.2014 19:00 21,6 C 74 % 1004,9 hPa 0,0 l/m 4,6 km/h (1 Bft) N 1,00 h 0,102 mm 0,5 UV-I 67 W/m 16,8 C 21,5 C 7,8 km/h (2 Bft)
29.07.2014 20:00 20,8 C 81 % 1005,4 hPa 0,0 l/m 6,7 km/h (2 Bft) N 0,00 h 0,051 mm 0,0 UV-I 24 W/m 17,4 C 20,4 C 10,0 km/h (2 Bft)
29.07.2014 21:00 20,0 C 87 % 1005,6 hPa 0,0 l/m 2,5 km/h (1 Bft) N-NO 0,00 h 0,025 mm 0,0 UV-I 0 W/m 17,7 C 20,0 C 4,5 km/h (1 Bft)
29.07.2014 22:00 19,2 C 93 % 1005,4 hPa 1,6 l/m 0,5 km/h (0 Bft) N 0,00 h 0,025 mm 0,0 UV-I 0 W/m 18,0 C 19,2 C 1,3 km/h (1 Bft)
29.07.2014 23:00 18,8 C 95 % 1005,5 hPa 0,0 l/m 0,6 km/h (0 Bft) N 0,00 h 0,000 mm 0,0 UV-I 0 W/m 18,0 C 18,8 C 1,2 km/h (1 Bft)
30.07.2014 00:00 18,4 C 96 % 1005,3 hPa 0,0 l/m 0,4 km/h (0 Bft) SW 0,00 h 0,000 mm 0,0 UV-I 0 W/m 17,7 C 18,4 C 1,3 km/h (1 Bft)
30.07.2014 01:00 18,1 C 95 % 1005,0 hPa 0,0 l/m 0,2 km/h (0 Bft) O-NO 0,00 h 0,000 mm 0,0 UV-I 0 W/m 17,3 C 18,1 C 1,1 km/h (1 Bft)
30.07.2014 02:00 17,9 C 96 % 1005,1 hPa 0,0 l/m 0,7 km/h (0 Bft) S-SO 0,00 h 0,000 mm 0,0 UV-I 0 W/m 17,3 C 17,9 C 1,9 km/h (1 Bft)
30.07.2014 03:00 17,8 C 96 % 1005,3 hPa 0,0 l/m 1,0 km/h (0 Bft) N-NW 0,00 h 0,000 mm 0,0 UV-I 0 W/m 17,2 C 17,8 C 2,0 km/h (1 Bft)
30.07.2014 04:00 17,5 C 96 % 1005,1 hPa 0,0 l/m 2,6 km/h (1 Bft) N 0,00 h 0,000 mm 0,0 UV-I 0 W/m 16,8 C 17,5 C 4,8 km/h (1 Bft)
30.07.2014 05:00 17,3 C 96 % 1005,4 hPa 0,0 l/m 0,4 km/h (0 Bft) N 0,00 h 0,000 mm 0,0 UV-I 5 W/m 16,6 C 17,3 C 0,9 km/h (0 Bft)
30.07.2014 06:00 17,3 C 96 % 1005,4 hPa 0,0 l/m 1,4 km/h (1 Bft) N-NW 0,00 h 0,000 mm 0,0 UV-I 20 W/m 16,6 C 17,3 C 2,9 km/h (1 Bft)
30.07.2014 07:00 17,3 C 97 % 1005,3 hPa 0,0 l/m 0,3 km/h (0 Bft) N-NW 0,82 h 0,000 mm 0,5 UV-I 73 W/m 16,8 C 17,3 C 1,0 km/h (0 Bft)
30.07.2014 08:00 18,2 C 94 % 1005,8 hPa 0,0 l/m 2,6 km/h (1 Bft) N-NW 0,97 h 0,051 mm 0,6 UV-I 94 W/m 17,3 C 18,2 C 4,9 km/h (1 Bft)
30.07.2014 09:00 18,9 C 92 % 1006,0 hPa 0,0 l/m 4,6 km/h (1 Bft) N-NW 1,00 h 0,051 mm 1,0 UV-I 159 W/m 17,6 C 18,8 C 7,6 km/h (2 Bft)
30.07.2014 10:00 19,4 C 90 % 1006,2 hPa 0,0 l/m 6,1 km/h (2 Bft) NW 1,00 h 0,102 mm 1,3 UV-I 164 W/m 17,7 C 19,2 C 9,1 km/h (2 Bft)
30.07.2014 11:00 19,5 C 89 % 1006,6 hPa 0,0 l/m 6,2 km/h (2 Bft) NW 1,00 h 0,102 mm 1,5 UV-I 148 W/m 17,7 C 19,3 C 9,3 km/h (2 Bft)
30.07.2014 12:00 20,7 C 84 % 1006,5 hPa 0,0 l/m 2,6 km/h (1 Bft) N-NW 1,00 h 0,102 mm 3,3 UV-I 340 W/m 17,9 C 20,7 C 4,6 km/h (1 Bft)
30.07.2014 13:00 23,1 C 76 % 1006,3 hPa 0,0 l/m 4,4 km/h (1 Bft) N-NO 1,00 h 0,203 mm 4,7 UV-I 519 W/m 18,6 C 22,9 C 7,4 km/h (2 Bft)
30.07.2014 14:00 23,6 C 71 % 1006,2 hPa 0,0 l/m 3,1 km/h (1 Bft) N 1,00 h 0,330 mm 3,0 UV-I 297 W/m 18,0 C 23,5 C 5,5 km/h (1 Bft)
30.07.2014 15:00 24,3 C 66 % 1006,1 hPa 0,0 l/m 7,5 km/h (2 Bft) N 1,00 h 0,203 mm 1,7 UV-I 228 W/m 17,6 C 23,8 C 10,9 km/h (2 Bft)
30.07.2014 16:00 22,4 C 78 % 1006,4 hPa 0,2 l/m 4,1 km/h (1 Bft) N 0,82 h 0,178 mm 1,1 UV-I 120 W/m 18,3 C 22,4 C 6,9 km/h (2 Bft)
30.07.2014 17:00 20,1 C 89 % 1007,1 hPa 3,0 l/m 2,5 km/h (1 Bft) O-NO 0,00 h 0,076 mm 0,0 UV-I 12 W/m 18,2 C 20,0 C 5,1 km/h (1 Bft)
30.07.2014 18:00 19,0 C 95 % 1007,3 hPa 0,0 l/m 0,6 km/h (0 Bft) SO 0,00 h 0,025 mm 0,0 UV-I 26 W/m 18,1 C 19,0 C 1,6 km/h (1 Bft)
30.07.2014 19:00 18,9 C 95 % 1007,8 hPa 0,0 l/m 2,5 km/h (1 Bft) N-NO 0,00 h 0,025 mm 0,0 UV-I 22 W/m 18,1 C 18,9 C 4,3 km/h (1 Bft)
30.07.2014 20:00 19,0 C 93 % 1008,4 hPa 0,0 l/m 4,6 km/h (1 Bft) N 0,00 h 0,025 mm 0,0 UV-I 19 W/m 17,8 C 18,6 C 8,1 km/h (2 Bft)
30.07.2014 21:00 18,6 C 90 % 1009,3 hPa 0,0 l/m 9,2 km/h (2 Bft) N 0,00 h 0,026 mm 0,0 UV-I 0 W/m 16,9 C 17,5 C 14,3 km/h (3 Bft)
30.07.2014 22:00 17,8 C 93 % 1009,8 hPa 0,6 l/m 8,9 km/h (2 Bft) N 0,00 h 0,025 mm 0,0 UV-I 0 W/m 16,7 C 16,7 C 14,1 km/h (3 Bft)
30.07.2014 23:00 17,4 C 94 % 1010,1 hPa 0,2 l/m 5,9 km/h (2 Bft) N-NW 0,00 h 0,000 mm 0,0 UV-I 0 W/m 16,4 C 17,1 C 10,0 km/h (2 Bft)
31.07.2014 00:00 17,2 C 94 % 1010,5 hPa 0,0 l/m 5,2 km/h (1 Bft) N-NW 0,00 h 0,000 mm 0,0 UV-I 0 W/m 16,3 C 17,0 C 9,6 km/h (2 Bft)
31.07.2014 01:00 16,9 C 93 % 1010,8 hPa 0,0 l/m 5,1 km/h (1 Bft) N 0,00 h 0,000 mm 0,0 UV-I 0 W/m 15,7 C 16,7 C 8,7 km/h (2 Bft)
31.07.2014 02:00 16,8 C 93 % 1010,8 hPa 0,0 l/m 7,3 km/h (2 Bft) N 0,00 h 0,000 mm 0,0 UV-I 0 W/m 15,7 C 16,1 C 12,1 km/h (2 Bft)
31.07.2014 03:00 16,0 C 89 % 1011,1 hPa 0,0 l/m 11,8 km/h (2 Bft) N 0,00 h 0,000 mm 0,0 UV-I 0 W/m 14,3 C 13,7 C 18,5 km/h (3 Bft)
31.07.2014 04:00 15,8 C 89 % 1011,3 hPa 0,0 l/m 8,8 km/h (2 Bft) N 0,00 h 0,000 mm 0,0 UV-I 0 W/m 13,9 C 14,6 C 13,5 km/h (3 Bft)
31.07.2014 05:00 15,8 C 89 % 1011,9 hPa 0,0 l/m 8,3 km/h (2 Bft) N 0,00 h 0,025 mm 0,0 UV-I 0 W/m 14,0 C 14,9 C 12,9 km/h (3 Bft)
31.07.2014 06:00 16,1 C 89 % 1012,4 hPa 0,0 l/m 6,4 km/h (2 Bft) N 0,00 h 0,025 mm 0,0 UV-I 16 W/m 14,2 C 15,6 C 10,7 km/h (2 Bft)
31.07.2014 07:00 16,3 C 87 % 1012,6 hPa 0,0 l/m 5,4 km/h (1 Bft) N-NW 0,23 h 0,025 mm 0,0 UV-I 36 W/m 14,2 C 16,1 C 9,2 km/h (2 Bft)
31.07.2014 08:00 16,6 C 84 % 1013,0 hPa 0,0 l/m 7,7 km/h (2 Bft) N 1,00 h 0,025 mm 0,8 UV-I 121 W/m 14,0 C 15,6 C 12,3 km/h (3 Bft)
31.07.2014 09:00 17,3 C 79 % 1013,5 hPa 0,0 l/m 10,0 km/h (2 Bft) N-NO 1,00 h 0,076 mm 1,3 UV-I 178 W/m 13,5 C 15,7 C 15,1 km/h (3 Bft)
31.07.2014 10:00 18,5 C 74 % 1014,0 hPa 0,0 l/m 7,4 km/h (2 Bft) N-NO 1,00 h 0,127 mm 2,6 UV-I 302 W/m 13,8 C 17,8 C 11,7 km/h (2 Bft)
31.07.2014 11:00 20,3 C 66 % 1014,2 hPa 0,0 l/m 9,7 km/h (2 Bft) N 1,00 h 0,203 mm 4,6 UV-I 567 W/m 13,8 C 19,0 C 14,5 km/h (3 Bft)
31.07.2014 12:00 21,6 C 61 % 1014,2 hPa 0,0 l/m 7,8 km/h (2 Bft) N 1,00 h 0,381 mm 4,8 UV-I 586 W/m 13,6 C 21,0 C 12,5 km/h (3 Bft)
31.07.2014 13:00 21,0 C 61 % 1014,0 hPa 0,0 l/m 6,7 km/h (2 Bft) N 1,00 h 0,406 mm 3,7 UV-I 376 W/m 13,1 C 20,6 C 11,0 km/h (2 Bft)
31.07.2014 14:00 21,1 C 60 % 1014,0 hPa 0,0 l/m 6,2 km/h (2 Bft) N 1,00 h 0,279 mm 2,6 UV-I 273 W/m 13,1 C 20,9 C 10,1 km/h (2 Bft)
31.07.2014 15:00 21,8 C 57 % 1013,9 hPa 0,0 l/m 6,7 km/h (2 Bft) N 1,00 h 0,203 mm 3,5 UV-I 442 W/m 12,9 C 21,5 C 10,6 km/h (2 Bft)
31.07.2014 16:00 21,7 C 58 % 1013,9 hPa 0,0 l/m 5,0 km/h (1 Bft) N 1,00 h 0,305 mm 2,1 UV-I 301 W/m 13,0 C 21,4 C 8,1 km/h (2 Bft)
31.07.2014 17:00 21,7 C 59 % 1013,6 hPa 0,0 l/m 4,2 km/h (1 Bft) N 1,00 h 0,229 mm 1,5 UV-I 252 W/m 13,2 C 21,6 C 7,2 km/h (2 Bft)
31.07.2014 18:00 20,7 C 62 % 1013,5 hPa 0,0 l/m 3,8 km/h (1 Bft) NO 0,92 h 0,178 mm 0,8 UV-I 84 W/m 13,2 C 20,6 C 7,0 km/h (2 Bft)
31.07.2014 19:00 20,0 C 64 % 1013,5 hPa 0,0 l/m 1,1 km/h (1 Bft) O-NO 0,32 h 0,076 mm 0,5 UV-I 43 W/m 13,0 C 20,0 C 2,7 km/h (1 Bft)
31.07.2014 20:00 19,1 C 67 % 1013,6 hPa 0,0 l/m 0,1 km/h (0 Bft) O 0,00 h 0,025 mm 0,0 UV-I 15 W/m 12,9 C 19,1 C 0,7 km/h (0 Bft)
31.07.2014 21:00 17,0 C 81 % 1013,8 hPa 0,0 l/m 0,5 km/h (0 Bft) O-SO 0,00 h 0,025 mm 0,0 UV-I 0 W/m 13,6 C 17,0 C 2,0 km/h (1 Bft)
31.07.2014 22:00 15,2 C 88 % 1014,3 hPa 0,0 l/m 1,7 km/h (1 Bft) O 0,00 h 0,000 mm 0,0 UV-I 0 W/m 13,1 C 15,2 C 3,6 km/h (1 Bft)
31.07.2014 23:00 14,0 C 91 % 1014,4 hPa 0,0 l/m 0,3 km/h (0 Bft) O-NO 0,00 h 0,000 mm 0,0 UV-I 0 W/m 12,5 C 14,0 C 0,7 km/h (0 Bft)
01.08.2014 00:00 13,0 C 93 % 1014,6 hPa 0,0 l/m 0,0 km/h (0 Bft) N 0,00 h 0,000 mm 0,0 UV-I 0 W/m 11,9 C 13,0 C 0,0 km/h (0 Bft)
01.08.2014 01:00 12,3 C 94 % 1014,7 hPa 0,0 l/m 0,0 km/h (0 Bft) N 0,00 h 0,000 mm 0,0 UV-I 0 W/m 11,4 C 12,3 C 0,1 km/h (0 Bft)
01.08.2014 02:00 11,7 C 94 % 1014,4 hPa 0,0 l/m 0,0 km/h (0 Bft) N 0,00 h 0,000 mm 0,0 UV-I 0 W/m 10,8 C 11,7 C 0,0 km/h (0 Bft)
01.08.2014 03:00 11,1 C 95 % 1014,2 hPa 0,0 l/m 0,0 km/h (0 Bft) N 0,00 h 0,000 mm 0,0 UV-I 0 W/m 10,3 C 11,1 C 0,1 km/h (0 Bft)
01.08.2014 04:00 10,4 C 95 % 1014,2 hPa 0,0 l/m 0,0 km/h (0 Bft) O 0,00 h 0,000 mm 0,0 UV-I 0 W/m 9,7 C 10,4 C 0,3 km/h (0 Bft)
01.08.2014 05:00 9,9 C 95 % 1014,0 hPa 0,0 l/m 0,0 km/h (0 Bft) N 0,00 h 0,000 mm 0,0 UV-I 5 W/m 9,2 C 9,9 C 0,0 km/h (0 Bft)
01.08.2014 06:00 9,8 C 96 % 1013,9 hPa 0,0 l/m 0,0 km/h (0 Bft) N 0,00 h 0,000 mm 0,0 UV-I 16 W/m 9,2 C 9,8 C 0,0 km/h (0 Bft)
01.08.2014 07:00 11,8 C 94 % 1013,7 hPa 0,0 l/m 0,2 km/h (0 Bft) W-SW 0,53 h 0,000 mm 0,7 UV-I 143 W/m 10,8 C 11,8 C 0,9 km/h (0 Bft)
01.08.2014 08:00 16,1 C 86 % 1013,6 hPa 0,0 l/m 0,5 km/h (0 Bft) S-SW 1,00 h 0,076 mm 1,4 UV-I 392 W/m 13,7 C 16,1 C 1,3 km/h (1 Bft)
01.08.2014 09:00 19,2 C 72 % 1013,4 hPa 0,0 l/m 1,8 km/h (1 Bft) S-SO 1,00 h 0,203 mm 2,2 UV-I 335 W/m 14,0 C 19,2 C 4,0 km/h (1 Bft)
01.08.2014 10:00 21,3 C 62 % 1013,0 hPa 0,0 l/m 3,2 km/h (1 Bft) O-NO 1,00 h 0,203 mm 3,6 UV-I 558 W/m 13,7 C 21,3 C 6,1 km/h (2 Bft)
01.08.2014 11:00 20,9 C 62 % 1012,8 hPa 0,0 l/m 2,6 km/h (1 Bft) O 1,00 h 0,356 mm 3,1 UV-I 270 W/m 13,2 C 20,9 C 5,6 km/h (1 Bft)
01.08.2014 12:00 22,2 C 58 % 1012,5 hPa 0,0 l/m 3,7 km/h (1 Bft) O-NO 1,00 h 0,178 mm 4,7 UV-I 521 W/m 13,7 C 22,2 C 7,7 km/h (2 Bft)
01.08.2014 13:00 23,4 C 52 % 1012,0 hPa 0,0 l/m 6,4 km/h (2 Bft) SO 1,00 h 0,356 mm 5,6 UV-I 683 W/m 12,9 C 23,0 C 10,8 km/h (2 Bft)
01.08.2014 14:00 22,9 C 54 % 1011,5 hPa 0,0 l/m 4,4 km/h (1 Bft) O-SO 1,00 h 0,457 mm 3,8 UV-I 364 W/m 13,0 C 22,8 C 8,2 km/h (2 Bft)
01.08.2014 15:00 24,3 C 50 % 1011,1 hPa 0,0 l/m 4,6 km/h (1 Bft) S-SO 1,00 h 0,279 mm 3,9 UV-I 612 W/m 13,2 C 24,2 C 8,1 km/h (2 Bft)
01.08.2014 16:00 23,9 C 50 % 1010,6 hPa 0,0 l/m 5,7 km/h (1 Bft) SO 1,00 h 0,406 mm 2,4 UV-I 388 W/m 12,9 C 23,7 C 9,4 km/h (2 Bft)
01.08.2014 17:00 24,1 C 52 % 1010,2 hPa 0,0 l/m 3,9 km/h (1 Bft) O 1,00 h 0,279 mm 1,7 UV-I 331 W/m 13,7 C 24,0 C 7,1 km/h (2 Bft)
01.08.2014 18:00 23,1 C 57 % 1010,2 hPa 0,0 l/m 3,2 km/h (1 Bft) O-NO 1,00 h 0,229 mm 0,6 UV-I 104 W/m 14,2 C 23,1 C 6,2 km/h (2 Bft)
01.08.2014 19:00 22,4 C 61 % 1010,1 hPa 0,0 l/m 4,2 km/h (1 Bft) O 0,58 h 0,102 mm 0,5 UV-I 61 W/m 14,6 C 22,3 C 8,3 km/h (2 Bft)
01.08.2014 20:00 21,0 C 67 % 1010,2 hPa 0,0 l/m 2,5 km/h (1 Bft) O 0,00 h 0,076 mm 0,0 UV-I 15 W/m 14,5 C 21,0 C 5,4 km/h (1 Bft)
01.08.2014 21:00 19,7 C 74 % 1010,5 hPa 0,0 l/m 0,8 km/h (0 Bft) O-NO 0,00 h 0,026 mm 0,0 UV-I 0 W/m 14,8 C 19,7 C 2,5 km/h (1 Bft)
01.08.2014 22:00 18,7 C 80 % 1010,5 hPa 0,0 l/m 2,4 km/h (1 Bft) O-NO 0,00 h 0,025 mm 0,0 UV-I 0 W/m 15,2 C 18,7 C 5,0 km/h (1 Bft)
01.08.2014 23:00 17,9 C 84 % 1010,6 hPa 0,0 l/m 3,9 km/h (1 Bft) O-NO 0,00 h 0,025 mm 0,0 UV-I 0 W/m 15,2 C 17,9 C 7,4 km/h (2 Bft)
02.08.2014 00:00 17,3 C 87 % 1010,4 hPa 0,0 l/m 2,4 km/h (1 Bft) O-NO 0,00 h 0,025 mm 0,0 UV-I 0 W/m 15,1 C 17,3 C 5,3 km/h (1 Bft)
02.08.2014 01:00 16,8 C 89 % 1010,3 hPa 0,0 l/m 1,1 km/h (1 Bft) N 0,00 h 0,025 mm 0,0 UV-I 0 W/m 14,9 C 16,8 C 2,2 km/h (1 Bft)
02.08.2014 02:00 15,8 C 92 % 1009,9 hPa 0,0 l/m 1,1 km/h (0 Bft) N-NO 0,00 h 0,000 mm 0,0 UV-I 0 W/m 14,5 C 15,8 C 2,2 km/h (1 Bft)
02.08.2014 03:00 15,0 C 94 % 1009,7 hPa 0,0 l/m 0,2 km/h (0 Bft) N 0,00 h 0,000 mm 0,0 UV-I 0 W/m 14,0 C 15,0 C 1,1 km/h (1 Bft)
02.08.2014 04:00 14,6 C 95 % 1009,6 hPa 0,0 l/m 1,2 km/h (1 Bft) N 0,00 h 0,000 mm 0,0 UV-I 0 W/m 13,7 C 14,6 C 3,0 km/h (1 Bft)
02.08.2014 05:00 14,6 C 95 % 1009,4 hPa 0,0 l/m 1,7 km/h (1 Bft) O-NO 0,00 h 0,000 mm 0,0 UV-I 7 W/m 13,8 C 14,6 C 3,9 km/h (1 Bft)
02.08.2014 06:00 14,3 C 96 % 1009,3 hPa 0,0 l/m 1,5 km/h (1 Bft) O-NO 0,00 h 0,000 mm 0,0 UV-I 24 W/m 13,6 C 14,3 C 3,7 km/h (1 Bft)
02.08.2014 07:00 17,1 C 93 % 1009,1 hPa 0,0 l/m 1,3 km/h (1 Bft) O-NO 0,57 h 0,025 mm 0,7 UV-I 117 W/m 15,9 C 17,1 C 3,0 km/h (1 Bft)
02.08.2014 08:00 19,2 C 86 % 1009,0 hPa 0,0 l/m 4,6 km/h (1 Bft) SO 1,00 h 0,076 mm 1,4 UV-I 329 W/m 16,8 C 19,0 C 7,7 km/h (2 Bft)
02.08.2014 09:00 20,7 C 81 % 1008,7 hPa 0,0 l/m 6,5 km/h (2 Bft) O-SO 1,00 h 0,203 mm 2,5 UV-I 484 W/m 17,4 C 20,4 C 10,8 km/h (2 Bft)
02.08.2014 10:00 21,6 C 78 % 1008,6 hPa 0,0 l/m 7,4 km/h (2 Bft) SO 1,00 h 0,305 mm 3,0 UV-I 364 W/m 17,6 C 21,0 C 12,1 km/h (2 Bft)
02.08.2014 11:00 23,5 C 71 % 1008,4 hPa 0,0 l/m 6,6 km/h (2 Bft) SO 1,00 h 0,254 mm 5,4 UV-I 786 W/m 17,9 C 23,1 C 10,9 km/h (2 Bft)
02.08.2014 12:00 25,4 C 65 % 1007,8 hPa 0,0 l/m 3,2 km/h (1 Bft) O-NO 1,00 h 0,483 mm 6,1 UV-I 799 W/m 18,3 C 25,4 C 6,1 km/h (2 Bft)
02.08.2014 13:00 26,4 C 60 % 1007,5 hPa 0,0 l/m 5,3 km/h (1 Bft) SO 1,00 h 0,508 mm 5,4 UV-I 664 W/m 17,9 C 26,3 C 8,6 km/h (2 Bft)
02.08.2014 14:00 27,9 C 54 % 1007,1 hPa 0,0 l/m 4,8 km/h (1 Bft) O 1,00 h 0,457 mm 5,8 UV-I 802 W/m 17,5 C 27,8 C 8,7 km/h (2 Bft)
02.08.2014 15:00 28,1 C 52 % 1006,7 hPa 0,0 l/m 6,1 km/h (2 Bft) SO 1,00 h 0,533 mm 4,6 UV-I 703 W/m 17,2 C 27,9 C 10,5 km/h (2 Bft)
02.08.2014 16:00 27,9 C 51 % 1006,1 hPa 0,0 l/m 6,4 km/h (2 Bft) O-SO 1,00 h 0,508 mm 3,0 UV-I 469 W/m 16,7 C 27,8 C 11,2 km/h (2 Bft)
02.08.2014 17:00 26,8 C 52 % 1005,7 hPa 0,0 l/m 6,2 km/h (2 Bft) SO 1,00 h 0,356 mm 1,3 UV-I 184 W/m 16,2 C 26,6 C 10,2 km/h (2 Bft)
02.08.2014 18:00 26,1 C 57 % 1005,9 hPa 0,0 l/m 4,4 km/h (1 Bft) SO 1,00 h 0,178 mm 0,7 UV-I 106 W/m 16,8 C 26,1 C 7,6 km/h (2 Bft)
02.08.2014 19:00 22,8 C 65 % 1007,0 hPa 0,0 l/m 11,3 km/h (2 Bft) W-SW 0,23 h 0,102 mm 0,0 UV-I 31 W/m 15,8 C 21,4 C 18,6 km/h (3 Bft)
02.08.2014 20:00 18,7 C 81 % 1007,4 hPa 0,0 l/m 2,5 km/h (1 Bft) S 0,00 h 0,076 mm 0,0 UV-I 9 W/m 15,3 C 18,7 C 4,6 km/h (1 Bft)
02.08.2014 21:00 18,1 C 86 % 1007,5 hPa 0,8 l/m 4,1 km/h (1 Bft) SO 0,00 h 0,025 mm 0,0 UV-I 0 W/m 15,7 C 18,0 C 6,9 km/h (2 Bft)
02.08.2014 22:00 17,4 C 93 % 1007,6 hPa 1,4 l/m 2,9 km/h (1 Bft) O 0,00 h 0,025 mm 0,0 UV-I 0 W/m 16,2 C 17,3 C 5,4 km/h (1 Bft)
02.08.2014 23:00 17,2 C 95 % 1007,7 hPa 0,2 l/m 1,6 km/h (1 Bft) W-NW 0,00 h 0,000 mm 0,0 UV-I 0 W/m 16,4 C 17,2 C 3,1 km/h (1 Bft)
03.08.2014 00:00 16,8 C 96 % 1008,0 hPa 0,0 l/m 1,2 km/h (1 Bft) S 0,00 h 0,000 mm 0,0 UV-I 0 W/m 16,1 C 16,8 C 3,0 km/h (1 Bft)
03.08.2014 01:00 16,5 C 96 % 1008,3 hPa 0,0 l/m 3,1 km/h (1 Bft) S-SO 0,00 h 0,000 mm 0,0 UV-I 0 W/m 15,9 C 16,5 C 5,0 km/h (1 Bft)
03.08.2014 02:00 16,5 C 96 % 1008,4 hPa 0,0 l/m 1,3 km/h (1 Bft) SO 0,00 h 0,000 mm 0,0 UV-I 0 W/m 15,8 C 16,5 C 2,8 km/h (1 Bft)
03.08.2014 03:00 16,5 C 96 % 1008,3 hPa 0,0 l/m 0,7 km/h (0 Bft) S-SO 0,00 h 0,000 mm 0,0 UV-I 0 W/m 15,9 C 16,5 C 1,9 km/h (1 Bft)
03.08.2014 04:00 16,4 C 96 % 1008,5 hPa 0,0 l/m 0,1 km/h (0 Bft) S-SW 0,00 h 0,000 mm 0,0 UV-I 0 W/m 15,8 C 16,4 C 0,5 km/h (0 Bft)
03.08.2014 05:00 16,1 C 97 % 1008,8 hPa 0,0 l/m 0,0 km/h (0 Bft) N 0,00 h 0,000 mm 0,0 UV-I 0 W/m 15,6 C 16,1 C 0,2 km/h (0 Bft)
03.08.2014 06:00 16,6 C 97 % 1009,2 hPa 0,0 l/m 0,1 km/h (0 Bft) SW 0,00 h 0,000 mm 0,0 UV-I 16 W/m 16,1 C 16,6 C 0,9 km/h (0 Bft)
03.08.2014 07:00 17,3 C 97 % 1009,5 hPa 0,0 l/m 0,3 km/h (0 Bft) W 0,85 h 0,000 mm 0,5 UV-I 72 W/m 16,7 C 17,3 C 1,2 km/h (1 Bft)
03.08.2014 08:00 17,9 C 94 % 1009,9 hPa 0,0 l/m 2,4 km/h (1 Bft) SW 1,00 h 0,051 mm 0,7 UV-I 120 W/m 16,9 C 17,9 C 4,9 km/h (1 Bft)
03.08.2014 09:00 18,9 C 91 % 1010,2 hPa 0,0 l/m 2,6 km/h (1 Bft) S-SW 1,00 h 0,076 mm 1,6 UV-I 294 W/m 17,4 C 18,8 C 4,7 km/h (1 Bft)
03.08.2014 10:00 20,4 C 88 % 1010,4 hPa 0,2 l/m 4,7 km/h (1 Bft) W-NW 1,00 h 0,178 mm 2,5 UV-I 309 W/m 18,3 C 20,4 C 7,4 km/h (2 Bft)
03.08.2014 11:00 21,7 C 82 % 1010,6 hPa 0,0 l/m 5,7 km/h (1 Bft) W-SW 1,00 h 0,203 mm 4,0 UV-I 501 W/m 18,5 C 21,6 C 9,3 km/h (2 Bft)
03.08.2014 12:00 23,0 C 75 % 1010,5 hPa 0,0 l/m 8,6 km/h (2 Bft) S 1,00 h 0,305 mm 6,4 UV-I 878 W/m 18,4 C 22,4 C 12,8 km/h (3 Bft)
03.08.2014 13:00 23,5 C 72 % 1010,3 hPa 0,0 l/m 9,6 km/h (2 Bft) S 1,00 h 0,533 mm 6,6 UV-I 839 W/m 18,1 C 22,6 C 14,5 km/h (3 Bft)
03.08.2014 14:00 24,4 C 68 % 1010,0 hPa 0,0 l/m 6,6 km/h (2 Bft) W-SW 1,00 h 0,533 mm 5,0 UV-I 648 W/m 18,0 C 24,2 C 10,9 km/h (2 Bft)
03.08.2014 15:00 25,2 C 62 % 1009,7 hPa 0,0 l/m 5,6 km/h (1 Bft) W 1,00 h 0,432 mm 4,1 UV-I 526 W/m 17,3 C 25,0 C 9,0 km/h (2 Bft)
03.08.2014 16:00 24,2 C 65 % 1009,5 hPa 0,0 l/m 8,7 km/h (2 Bft) W 1,00 h 0,356 mm 1,7 UV-I 209 W/m 17,0 C 23,5 C 13,6 km/h (3 Bft)
03.08.2014 17:00 21,2 C 80 % 1009,6 hPa 0,2 l/m 5,1 km/h (1 Bft) N 0,95 h 0,000 mm 0,9 UV-I 97 W/m 17,5 C 21,0 C 7,6 km/h (2 Bft)
03.08.2014 18:00 20,8 C 80 % 1010,0 hPa 0,0 l/m 3,7 km/h (1 Bft) N 1,00 h 0,076 mm 0,8 UV-I 82 W/m 17,3 C 20,7 C 6,1 km/h (2 Bft)
03.08.2014 19:00 20,3 C 79 % 1010,2 hPa 0,0 l/m 3,4 km/h (1 Bft) N 0,22 h 0,051 mm 0,5 UV-I 42 W/m 16,5 C 20,3 C 5,4 km/h (1 Bft)
03.08.2014 20:00 19,4 C 82 % 1010,8 hPa 0,0 l/m 6,0 km/h (2 Bft) N-NW 0,00 h 0,025 mm 0,0 UV-I 15 W/m 16,3 C 19,0 C 9,1 km/h (2 Bft)
03.08.2014 21:00 17,7 C 88 % 1011,1 hPa 0,0 l/m 3,4 km/h (1 Bft) NW 0,00 h 0,025 mm 0,0 UV-I 0 W/m 15,6 C 17,5 C 6,0 km/h (2 Bft)
03.08.2014 22:00 16,7 C 91 % 1011,2 hPa 0,0 l/m 0,4 km/h (0 Bft) S 0,00 h 0,025 mm 0,0 UV-I 0 W/m 15,3 C 16,7 C 1,4 km/h (1 Bft)
03.08.2014 23:00 16,2 C 93 % 1011,6 hPa 0,0 l/m 0,1 km/h (0 Bft) N-NO 0,00 h 0,000 mm 0,0 UV-I 0 W/m 15,0 C 16,2 C 0,7 km/h (0 Bft)
Min-Datum _ 31.07.14 01.08.14 29.07.14 - 28.07.14 - - - - - 01.08.14 01.08.14 28.07.14
_ Min-Zeit 03:45 15:01 18:04 - 00:00 - - - - - 05:44 06:09 00:00
Minimum _ 0,0 C 46 % 1004,6 hPa - 0,0 km/h (0 Bft) - - - - - 9,0 C 9,7 C 0,0 km/h (0 Bft)
Max-Datum _ 02.08.14 28.07.14 01.08.14 30.07.14 29.07.14 - 03.08.14 02.08.14 30.07.14 03.08.14 30.07.14 02.08.14 02.08.14
_ Max-Zeit 15:44 04:39 01:40 17:20 15:53 - 07:49 15:00 13:22 12:21 13:27 15:44 19:26
Maximum _ 28,8 C 98 % 1014,8 hPa 3,0 l/m 22,5 km/h
N (4 Bft)
- 0,07 h 0,533 mm 7,5 UV-I 1169 W/m 20,2 C 28,8 C 40,2 km/h
W-SW (6 Bft)
Durchschnitt _ 19,4 C 81 % 1009,6 hPa #8,4 l/m 3,6 km/h (1 Bft) N #82:08 h #21,151 mm 2,7 UV-I 282 W/m 15,6 C 19,2 C 6,3 km/h (2 Bft)